createdAt,value
2019-02-07T00:00:50.784Z,13.60
2019-02-07T00:03:33.664Z,13.70
2019-02-07T00:06:20.024Z,13.70
2019-02-07T00:09:08.580Z,13.70
2019-02-07T00:11:49.540Z,13.70
2019-02-07T00:14:39.322Z,13.70
2019-02-07T00:17:17.636Z,13.80
2019-02-07T00:20:03.074Z,13.80
2019-02-07T00:22:41.558Z,13.80
2019-02-07T00:25:26.314Z,13.80
2019-02-07T00:28:07.663Z,13.80
2019-02-07T00:30:49.884Z,13.80
2019-02-07T00:33:30.191Z,13.90
2019-02-07T00:36:08.446Z,14.00
2019-02-07T00:38:49.285Z,14.00
2019-02-07T00:41:27.495Z,14.10
2019-02-07T00:44:10.236Z,14.20
2019-02-07T00:46:52.654Z,14.20
2019-02-07T00:49:34.640Z,14.30
2019-02-07T00:52:15.668Z,14.30
2019-02-07T00:55:00.399Z,14.30
2019-02-07T00:57:46.236Z,14.30
2019-02-07T01:00:29.900Z,14.40
2019-02-07T01:03:12.022Z,14.40
2019-02-07T01:05:58.772Z,14.40
2019-02-07T01:08:37.306Z,14.40
2019-02-07T01:11:18.247Z,14.50
2019-02-07T01:13:57.125Z,14.50
2019-02-07T01:16:39.073Z,14.50
2019-02-07T01:19:24.121Z,14.60
2019-02-07T01:25:07.511Z,14.70
2019-02-07T01:27:45.923Z,14.70
2019-02-07T01:33:42.218Z,14.80
2019-02-07T01:36:24.276Z,14.90
2019-02-07T01:39:02.517Z,14.90
2019-02-07T01:41:42.883Z,14.90
2019-02-07T01:44:24.701Z,15.00
2019-02-07T01:47:23.921Z,15.00
2019-02-07T01:50:07.421Z,15.10
2019-02-07T01:52:56.084Z,15.10
2019-02-07T01:55:43.275Z,15.10
2019-02-07T01:58:33.868Z,15.10
2019-02-07T02:01:16.022Z,15.10
2019-02-07T02:03:59.851Z,15.10
2019-02-07T02:10:32.612Z,15.10
2019-02-07T02:13:13.810Z,15.20
2019-02-07T02:16:00.220Z,15.20
2019-02-07T02:18:49.630Z,15.20
2019-02-07T02:21:36.326Z,15.20
2019-02-07T02:24:22.871Z,15.20
2019-02-07T02:27:06.637Z,15.30
2019-02-07T02:30:04.391Z,15.30
2019-02-07T02:32:54.283Z,15.40
2019-02-07T02:35:45.211Z,15.40
2019-02-07T02:38:24.960Z,15.50
2019-02-07T02:41:12.717Z,15.50
2019-02-07T02:44:00.134Z,15.50
2019-02-07T02:46:40.988Z,15.50
2019-02-07T02:49:31.397Z,15.60
2019-02-07T02:52:18.338Z,15.60
2019-02-07T02:55:00.824Z,15.60
2019-02-07T02:57:39.805Z,15.70
2019-02-07T03:00:22.771Z,15.70
2019-02-07T03:03:26.726Z,15.70
2019-02-07T03:06:25.621Z,15.80
2019-02-07T03:09:34.486Z,15.70
2019-02-07T03:12:38.223Z,15.80
2019-02-07T03:15:48.813Z,15.80
2019-02-07T03:18:37.511Z,15.90
2019-02-07T03:21:37.951Z,15.80
2019-02-07T03:24:46.564Z,15.90
2019-02-07T03:27:45.801Z,15.90
2019-02-07T03:30:55.032Z,16.00
2019-02-07T03:33:58.439Z,16.00
2019-02-07T03:36:58.832Z,16.00
2019-02-07T03:39:50.726Z,16.00
2019-02-07T03:42:48.703Z,16.10
2019-02-07T03:46:00.738Z,16.10
2019-02-07T03:49:06.741Z,16.10
2019-02-07T03:52:02.631Z,16.10
2019-02-07T03:54:55.763Z,16.20
2019-02-07T03:57:51.558Z,16.20
2019-02-07T04:01:00.851Z,16.30
2019-02-07T04:03:51.861Z,16.30
2019-02-07T04:06:53.426Z,16.30
2019-02-07T04:09:55.913Z,16.30
2019-02-07T04:12:56.397Z,16.30
2019-02-07T04:16:00.205Z,16.40
2019-02-07T04:18:59.121Z,16.40
2019-02-07T04:22:09.652Z,16.50
2019-02-07T04:25:18.478Z,16.50
2019-02-07T04:28:14.243Z,16.50
2019-02-07T04:31:14.491Z,16.60
2019-02-07T04:34:22.836Z,16.60
2019-02-07T04:37:21.793Z,16.60
2019-02-07T04:40:35.719Z,16.60
2019-02-07T04:43:48.064Z,16.60
2019-02-07T04:46:42.785Z,16.60
2019-02-07T04:49:46.807Z,16.70
2019-02-07T04:52:48.598Z,16.70
2019-02-07T04:55:45.329Z,16.70
2019-02-07T04:58:41.839Z,16.70
2019-02-07T05:01:39.629Z,16.80
2019-02-07T05:04:42.998Z,16.80
2019-02-07T05:07:39.801Z,16.80
2019-02-07T05:10:39.056Z,16.80
2019-02-07T05:14:03.436Z,16.80
2019-02-07T05:17:03.335Z,16.90
2019-02-07T05:20:18.067Z,16.90
2019-02-07T05:23:18.989Z,16.90
2019-02-07T05:26:14.531Z,16.90
2019-02-07T05:29:11.299Z,16.90
2019-02-07T05:32:36.360Z,17.00
2019-02-07T05:35:50.255Z,17.00
2019-02-07T05:38:58.505Z,17.00
2019-02-07T05:41:53.739Z,17.00
2019-02-07T05:44:59.735Z,17.00
2019-02-07T05:48:11.742Z,17.10
2019-02-07T05:51:11.860Z,17.10
2019-02-07T05:54:20.997Z,17.00
2019-02-07T05:57:11.002Z,17.00
2019-02-07T06:00:21.570Z,17.10
2019-02-07T06:03:51.616Z,17.10
2019-02-07T06:06:49.431Z,17.20
2019-02-07T06:10:03.573Z,17.20
2019-02-07T06:13:03.548Z,17.30
2019-02-07T06:16:05.600Z,17.30
2019-02-07T06:19:07.287Z,17.20
2019-02-07T06:22:17.470Z,17.30
2019-02-07T06:25:34.177Z,17.30
2019-02-07T06:28:45.492Z,17.40
2019-02-07T06:31:43.768Z,17.40
2019-02-07T06:34:51.810Z,17.40
2019-02-07T06:37:56.027Z,17.40
2019-02-07T06:40:58.047Z,17.40
2019-02-07T06:44:29.003Z,17.40
2019-02-07T06:47:45.797Z,17.40
2019-02-07T06:50:52.425Z,17.50
2019-02-07T06:53:51.662Z,17.50
2019-02-07T06:57:08.153Z,17.50
2019-02-07T06:59:59.543Z,17.50
2019-02-07T07:03:10.581Z,17.50
2019-02-07T07:06:10.546Z,17.40
2019-02-07T07:09:44.052Z,17.50
2019-02-07T07:13:02.644Z,17.50
2019-02-07T07:16:29.338Z,17.50
2019-02-07T07:19:26.927Z,17.60
2019-02-07T07:22:54.454Z,17.60
2019-02-07T07:26:34.511Z,17.60
2019-02-07T07:29:45.237Z,17.60
2019-02-07T07:33:00.759Z,17.70
2019-02-07T07:36:06.730Z,17.60
2019-02-07T07:39:17.808Z,17.60
2019-02-07T07:42:26.777Z,17.70
2019-02-07T07:45:36.500Z,17.70
2019-02-07T07:48:49.368Z,17.60
2019-02-07T07:52:04.145Z,17.70
2019-02-07T07:55:10.495Z,17.70
2019-02-07T07:58:06.335Z,17.60
2019-02-07T08:01:06.720Z,17.60
2019-02-07T08:04:13.065Z,17.60
2019-02-07T08:07:54.356Z,17.60
2019-02-07T08:11:02.439Z,17.60
2019-02-07T08:14:04.087Z,17.60
2019-02-07T08:17:04.967Z,17.70
2019-02-07T08:20:18.208Z,17.60
2019-02-07T08:23:10.583Z,17.60
2019-02-07T08:26:16.611Z,17.60
2019-02-07T08:29:20.460Z,17.60
2019-02-07T08:32:36.236Z,17.70
2019-02-07T08:35:53.925Z,17.70
2019-02-07T08:39:08.069Z,17.70
2019-02-07T08:42:05.866Z,17.70
2019-02-07T08:45:12.169Z,17.70
2019-02-07T08:48:38.053Z,17.70
2019-02-07T08:51:52.162Z,17.60
2019-02-07T08:55:06.097Z,17.70
2019-02-07T08:58:02.420Z,17.70
2019-02-07T09:00:52.376Z,17.70
2019-02-07T09:03:59.356Z,17.70
2019-02-07T09:07:14.651Z,17.70
2019-02-07T09:10:53.271Z,17.80
2019-02-07T09:14:19.095Z,17.80
2019-02-07T09:17:32.048Z,17.80
2019-02-07T09:20:31.230Z,17.70
2019-02-07T09:23:38.111Z,17.70
2019-02-07T09:26:58.053Z,17.70
2019-02-07T09:30:05.824Z,17.70
2019-02-07T09:33:26.892Z,17.80
2019-02-07T09:36:23.364Z,17.70
2019-02-07T09:39:32.242Z,17.70
2019-02-07T09:42:37.556Z,17.70
2019-02-07T09:46:21.856Z,17.70
2019-02-07T09:49:35.643Z,17.60
2019-02-07T09:52:33.733Z,17.70
2019-02-07T09:55:42.361Z,17.60
2019-02-07T09:58:40.634Z,17.60
2019-02-07T10:01:55.937Z,17.60
2019-02-07T10:08:36.101Z,17.50
2019-02-07T10:11:58.773Z,17.60
2019-02-07T10:15:04.421Z,17.60
2019-02-07T10:18:00.058Z,17.60
2019-02-07T10:21:11.519Z,17.50
2019-02-07T10:24:29.203Z,17.30
2019-02-07T10:27:59.749Z,17.30
2019-02-07T10:31:39.453Z,17.20
2019-02-07T10:34:58.945Z,17.10
2019-02-07T10:38:21.928Z,17.00
2019-02-07T10:41:26.538Z,16.90
2019-02-07T10:44:51.486Z,16.90
2019-02-07T10:48:20.790Z,16.80
2019-02-07T10:51:14.647Z,16.80
2019-02-07T10:54:30.265Z,16.70
2019-02-07T10:57:33.623Z,16.70
2019-02-07T11:00:51.725Z,16.60
2019-02-07T11:03:57.860Z,16.60
2019-02-07T11:07:22.368Z,16.50
2019-02-07T11:10:29.888Z,16.50
2019-02-07T11:13:36.323Z,16.40
2019-02-07T11:16:58.899Z,16.40
2019-02-07T11:20:00.141Z,16.50
2019-02-07T11:23:14.401Z,16.50
2019-02-07T11:26:11.352Z,16.60
2019-02-07T11:29:26.645Z,16.60
2019-02-07T11:32:31.599Z,16.60
2019-02-07T11:35:50.197Z,16.50
2019-02-07T11:39:07.214Z,16.70
2019-02-07T11:42:52.886Z,16.70
2019-02-07T11:46:00.233Z,16.50
2019-02-07T11:49:07.920Z,16.50
2019-02-07T11:52:09.715Z,16.40
2019-02-07T11:55:16.390Z,16.50
2019-02-07T11:58:46.694Z,16.50
2019-02-07T12:02:09.397Z,16.40
2019-02-07T12:05:17.267Z,16.40
2019-02-07T12:08:32.579Z,16.30
2019-02-07T12:11:49.702Z,16.30
2019-02-07T12:14:50.749Z,16.30
2019-02-07T12:17:57.875Z,16.20
2019-02-07T12:21:03.975Z,16.20
2019-02-07T12:24:13.581Z,16.10
2019-02-07T12:27:22.506Z,16.10
2019-02-07T12:30:53.077Z,16.10
2019-02-07T12:34:25.884Z,16.10
2019-02-07T12:37:35.038Z,16.00
2019-02-07T12:41:18.335Z,16.00
2019-02-07T12:45:08.361Z,15.90
2019-02-07T12:48:35.214Z,15.90
2019-02-07T12:52:09.659Z,15.90
2019-02-07T12:55:28.759Z,15.90
2019-02-07T12:58:56.822Z,16.00
2019-02-07T13:02:45.037Z,16.00
2019-02-07T13:06:02.844Z,15.90
2019-02-07T13:09:32.916Z,15.90
2019-02-07T13:12:42.512Z,16.00
2019-02-07T13:16:20.366Z,16.00
2019-02-07T13:19:25.956Z,16.00
2019-02-07T13:22:34.384Z,15.90
2019-02-07T13:26:01.159Z,16.00
2019-02-07T13:29:41.473Z,16.00
2019-02-07T13:32:43.399Z,15.90
2019-02-07T13:36:12.198Z,15.90
2019-02-07T13:39:53.716Z,15.90
2019-02-07T13:42:53.409Z,15.90
2019-02-07T13:46:17.384Z,15.90
2019-02-07T13:49:36.248Z,15.90
2019-02-07T13:53:03.678Z,15.90
2019-02-07T13:56:51.823Z,15.90
2019-02-07T14:00:23.312Z,15.80
2019-02-07T14:03:32.056Z,15.80
2019-02-07T14:07:00.184Z,15.80
2019-02-07T14:10:33.572Z,15.80
2019-02-07T14:13:53.227Z,15.80
2019-02-07T14:17:23.955Z,15.90
2019-02-07T14:20:53.728Z,15.90
2019-02-07T14:24:16.575Z,15.80
2019-02-07T14:27:35.874Z,15.90
2019-02-07T14:30:39.483Z,15.90
2019-02-07T14:33:50.550Z,15.80
2019-02-07T14:40:51.684Z,15.90
2019-02-07T14:44:02.651Z,15.90
2019-02-07T14:47:19.796Z,15.90
2019-02-07T14:50:51.414Z,16.00
2019-02-07T14:54:41.795Z,16.00
2019-02-07T14:58:07.971Z,15.90
2019-02-07T15:01:35.088Z,16.00
2019-02-07T15:05:14.722Z,16.10
2019-02-07T15:08:34.619Z,16.00
2019-02-07T15:15:48.975Z,16.00
2019-02-07T15:19:18.826Z,16.00
2019-02-07T15:22:41.248Z,16.00
2019-02-07T15:26:21.648Z,16.00
2019-02-07T15:29:43.986Z,16.10
2019-02-07T15:33:21.838Z,16.10
2019-02-07T15:36:39.317Z,16.00
2019-02-07T15:39:42.195Z,16.00
2019-02-07T15:43:12.356Z,16.00
2019-02-07T15:46:30.892Z,16.00
2019-02-07T15:49:53.758Z,16.00
2019-02-07T15:53:21.141Z,16.00
2019-02-07T15:56:30.819Z,16.00
2019-02-07T16:00:12.787Z,15.90
2019-02-07T16:03:53.037Z,16.00
2019-02-07T16:07:18.447Z,15.80
2019-02-07T16:10:40.390Z,15.80
2019-02-07T16:14:13.528Z,15.80
2019-02-07T16:17:34.463Z,15.80
2019-02-07T16:21:12.782Z,15.70
2019-02-07T16:24:05.548Z,15.60
2019-02-07T16:27:27.101Z,15.50
2019-02-07T16:30:38.901Z,15.60
2019-02-07T16:33:36.393Z,15.50
2019-02-07T16:36:36.752Z,15.60
2019-02-07T16:39:35.135Z,15.60
2019-02-07T16:42:27.575Z,15.50
2019-02-07T16:45:35.619Z,15.50
2019-02-07T16:48:42.126Z,15.40
2019-02-07T16:51:47.534Z,15.40
2019-02-07T16:55:06.208Z,15.40
2019-02-07T16:57:45.874Z,15.40
2019-02-07T17:00:47.995Z,15.30
2019-02-07T17:03:55.842Z,15.30
2019-02-07T17:07:00.391Z,15.30
2019-02-07T17:10:14.387Z,15.30
2019-02-07T17:13:18.604Z,15.30
2019-02-07T17:16:21.205Z,15.20
2019-02-07T17:19:10.332Z,15.20
2019-02-07T17:21:52.873Z,15.20
2019-02-07T17:24:39.165Z,15.20
2019-02-07T17:27:47.682Z,15.00
2019-02-07T17:30:30.383Z,15.10
2019-02-07T17:33:33.776Z,15.20
2019-02-07T17:36:15.447Z,15.20
2019-02-07T17:39:22.705Z,15.10
2019-02-07T17:42:08.771Z,15.10
2019-02-07T17:44:59.223Z,15.10
2019-02-07T17:47:49.221Z,15.10
2019-02-07T17:50:50.199Z,15.00
2019-02-07T17:53:35.523Z,15.00
2019-02-07T17:56:17.216Z,15.00
2019-02-07T17:59:01.453Z,15.00
2019-02-07T18:01:52.369Z,15.00
2019-02-07T18:04:33.414Z,15.00
2019-02-07T18:07:12.967Z,15.10
2019-02-07T18:09:51.088Z,15.00
2019-02-07T18:12:32.731Z,15.00
2019-02-07T18:15:16.638Z,15.00
2019-02-07T18:17:54.275Z,15.00
2019-02-07T18:20:33.219Z,15.00
2019-02-07T18:23:13.487Z,15.00
2019-02-07T18:25:51.715Z,15.00
2019-02-07T18:28:29.752Z,15.00
2019-02-07T18:31:07.779Z,14.90
2019-02-07T18:33:47.049Z,14.90
2019-02-07T18:36:31.388Z,14.90
2019-02-07T18:39:20.958Z,14.90
2019-02-07T18:41:58.131Z,14.90
2019-02-07T18:44:38.083Z,14.90
2019-02-07T18:47:16.007Z,14.90
2019-02-07T18:50:00.482Z,14.90
2019-02-07T18:52:38.519Z,14.90
2019-02-07T18:55:18.310Z,14.90
2019-02-07T18:57:56.953Z,14.90
2019-02-07T19:00:37.656Z,14.90
2019-02-07T19:03:16.255Z,14.90
2019-02-07T19:05:54.442Z,14.90
2019-02-07T19:08:32.501Z,14.90
2019-02-07T19:11:10.481Z,14.90
2019-02-07T19:13:48.404Z,14.90
2019-02-07T19:16:26.453Z,14.90
2019-02-07T19:21:59.075Z,14.90
2019-02-07T19:24:38.270Z,14.80
2019-02-07T19:27:17.238Z,14.70
2019-02-07T19:29:54.939Z,14.90
2019-02-07T19:32:33.287Z,14.90
2019-02-07T19:35:13.965Z,14.80
2019-02-07T19:37:51.586Z,14.90
2019-02-07T19:40:30.888Z,14.90
2019-02-07T19:43:11.674Z,14.90
2019-02-07T19:45:49.174Z,14.90
2019-02-07T19:48:27.451Z,14.90
2019-02-07T19:51:09.974Z,14.90
2019-02-07T19:53:49.399Z,14.90
2019-02-07T19:56:27.417Z,14.90
2019-02-07T19:59:05.823Z,14.80
2019-02-07T20:01:46.935Z,14.80
2019-02-07T20:04:26.909Z,14.80
2019-02-07T20:07:04.664Z,14.70
2019-02-07T20:09:42.169Z,14.70
2019-02-07T20:12:20.201Z,14.70
2019-02-07T20:14:57.778Z,14.80
2019-02-07T20:17:37.939Z,14.80
2019-02-07T20:20:15.902Z,14.80
2019-02-07T20:22:53.862Z,14.70
2019-02-07T20:25:31.915Z,14.70
2019-02-07T20:28:09.532Z,14.80
2019-02-07T20:33:26.686Z,14.70
2019-02-07T20:36:05.663Z,14.80
2019-02-07T20:38:46.323Z,14.80
2019-02-07T20:41:25.674Z,14.80
2019-02-07T20:44:05.328Z,14.70
2019-02-07T20:46:44.299Z,14.80
2019-02-07T20:49:22.088Z,14.80
2019-02-07T20:51:59.712Z,14.80
2019-02-07T20:54:37.610Z,14.80
2019-02-07T20:57:15.902Z,14.70
2019-02-07T20:59:53.947Z,14.70
2019-02-07T21:02:33.060Z,14.70
2019-02-07T21:05:11.958Z,14.70
2019-02-07T21:07:49.755Z,14.60
2019-02-07T21:10:28.020Z,14.60
2019-02-07T21:13:08.089Z,14.60
2019-02-07T21:15:46.092Z,14.60
2019-02-07T21:18:23.664Z,14.60
2019-02-07T21:21:01.288Z,14.60
2019-02-07T21:23:38.848Z,14.60
2019-02-07T21:26:16.455Z,14.60
2019-02-07T21:28:54.064Z,14.60
2019-02-07T21:31:32.679Z,14.60
2019-02-07T21:34:12.096Z,14.60
2019-02-07T21:36:50.201Z,14.60
2019-02-07T21:39:28.581Z,14.60
2019-02-07T21:42:05.652Z,14.60
2019-02-07T21:44:43.850Z,14.60
2019-02-07T21:47:22.009Z,14.60
2019-02-07T21:49:59.248Z,14.60
2019-02-07T21:52:41.769Z,14.60
2019-02-07T21:55:16.678Z,14.60
2019-02-07T21:57:54.336Z,14.60
2019-02-07T22:00:40.330Z,14.60
2019-02-07T22:03:21.708Z,14.60
2019-02-07T22:05:59.934Z,14.50
2019-02-07T22:08:37.923Z,14.50
2019-02-07T22:11:17.809Z,14.50
2019-02-07T22:13:55.416Z,14.50
2019-02-07T22:16:34.080Z,14.50
2019-02-07T22:19:12.277Z,14.50
2019-02-07T22:21:51.301Z,14.50
2019-02-07T22:24:30.197Z,14.40
2019-02-07T22:27:11.122Z,14.50
2019-02-07T22:29:48.602Z,14.40
2019-02-07T22:32:26.888Z,14.40
2019-02-07T22:35:09.045Z,14.40
2019-02-07T22:37:47.372Z,14.40
2019-02-07T22:40:26.884Z,14.40
2019-02-07T22:43:06.657Z,14.40
2019-02-07T22:45:44.960Z,14.50
2019-02-07T22:48:23.128Z,14.50
2019-02-07T22:51:01.171Z,14.50
2019-02-07T22:53:39.785Z,14.50
2019-02-07T22:56:19.370Z,14.50
2019-02-07T22:58:57.589Z,14.60
2019-02-07T23:01:55.092Z,14.50
2019-02-07T23:04:35.857Z,14.50
2019-02-07T23:07:15.666Z,14.50
2019-02-07T23:09:53.488Z,14.40
2019-02-07T23:12:31.437Z,14.40
2019-02-07T23:15:09.713Z,14.40
2019-02-07T23:17:49.566Z,14.50
2019-02-07T23:20:30.651Z,14.50
2019-02-07T23:23:10.799Z,14.40
2019-02-07T23:25:50.197Z,14.40
2019-02-07T23:28:33.045Z,14.40
2019-02-07T23:31:15.751Z,14.50
2019-02-07T23:33:55.374Z,14.50
2019-02-07T23:36:35.612Z,14.50
2019-02-07T23:39:15.319Z,14.50
2019-02-07T23:41:54.563Z,14.50
2019-02-07T23:44:33.816Z,14.40
2019-02-07T23:47:12.369Z,14.50
2019-02-07T23:49:54.103Z,14.40
2019-02-07T23:52:33.070Z,14.50
2019-02-07T23:55:10.538Z,14.40
2019-02-07T23:57:52.779Z,14.50
